Time;durP1;ratioP1;P1;durP2;ratioP2;P2;SDS_P1;SDS_P2;PMS_P1;PMS_P2;Temp;Humidity;BMP_temperature;BMP_pressure;BME280_temperature;BME280_humidity;BME280_pressure;Samples;Min_cycle;Max_cycle;Signal;HPM_P1;HPM_P2
2021/10/03 00:00:23;;;;;;;;;;;18.10;98.50;;;16.40;100.00;98756.88;5027284;28;20500;-72
2021/10/03 00:02:53;;;;;;;6.15;3.45;;;18.10;98.60;;;16.38;100.00;98748.09;5042139;28;19952;-72
2021/10/03 00:05:23;;;;;;;8.80;3.60;;;18.10;99.40;;;16.36;100.00;98761.25;5026884;28;20140;-72
2021/10/03 00:07:52;;;;;;;7.07;3.53;;;18.00;99.30;;;16.33;100.00;98761.78;5026776;28;20096;-72
2021/10/03 00:10:25;;;;;;;7.60;3.50;;;18.00;98.90;;;16.34;100.00;98757.94;5026472;28;20061;-72
2021/10/03 00:12:53;;;;;;;8.77;3.30;;;18.00;98.90;;;16.36;100.00;98753.03;5011807;28;20128;-72
2021/10/03 00:15:22;;;;;;;6.55;3.63;;;18.00;98.90;;;16.35;100.00;98759.59;5006729;28;20116;-72
2021/10/03 00:17:51;;;;;;;10.32;3.08;;;18.10;99.00;;;16.33;100.00;98753.53;5005544;28;20164;-72
2021/10/03 00:20:19;;;;;;;6.20;3.22;;;18.00;99.00;;;16.33;100.00;98753.53;5007654;28;20054;-72
2021/10/03 00:22:47;;;;;;;6.80;3.28;;;18.00;99.20;;;16.36;100.00;98761.25;5041375;28;20083;-72
2021/10/03 00:25:14;;;;;;;6.88;3.00;;;18.00;99.60;;;16.38;100.00;98767.31;5026526;28;20042;-72
2021/10/03 00:27:46;;;;;;;8.07;3.20;;;18.00;99.60;;;16.38;100.00;98764.56;5026517;28;20067;-72
2021/10/03 00:30:15;;;;;;;;;;;18.00;99.70;;;16.36;100.00;98765.94;5026687;28;20081;-72
2021/10/03 00:32:43;;;;;;;7.85;2.90;;;18.00;99.60;;;16.34;100.00;98779.91;5026586;28;19971;-72
2021/10/03 00:35:10;;;;;;;8.38;3.00;;;18.00;99.90;;;16.32;100.00;98776.59;5026310;28;20045;-72
2021/10/03 00:37:40;;;;;;;7.18;2.97;;;18.00;99.90;;;16.32;100.00;98793.09;5026590;28;20529;-72
2021/10/03 00:40:10;;;;;;;5.35;2.72;;;18.00;99.90;;;16.31;100.00;98777.69;5026126;28;20096;-72
2021/10/03 00:42:38;;;;;;;5.85;2.80;;;18.00;99.90;;;16.30;100.00;98777.97;5024336;28;20057;-72
2021/10/03 00:45:12;;;;;;;15.73;3.72;;;18.00;99.90;;;16.30;100.00;98776.06;5026273;28;20069;-72
2021/10/03 00:47:39;;;;;;;7.32;3.10;;;17.90;99.90;;;16.31;100.00;98772.19;5026136;28;20041;-72
2021/10/03 00:50:09;;;;;;;6.50;3.22;;;18.00;99.90;;;16.31;100.00;98776.88;5026260;28;20523;-72
2021/10/03 00:52:37;;;;;;;7.97;3.20;;;17.90;99.90;;;16.26;100.00;98765.84;5025534;28;20088;-73
2021/10/03 00:55:05;;;;;;;5.82;3.03;;;17.90;99.90;;;16.24;100.00;98763.41;5024578;28;20149;-72
2021/10/03 00:57:33;;;;;;;6.95;3.60;;;17.90;99.90;;;16.24;100.00;98760.66;5026385;28;20049;-72
2021/10/03 01:00:01;;;;;;;6.50;3.15;;;17.90;99.90;;;16.23;100.00;98761.72;5027030;28;20044;-72
2021/10/03 01:02:29;;;;;;;6.03;3.20;;;17.90;99.90;;;16.23;100.00;98762.53;5028102;28;20162;-72
2021/10/03 01:04:57;;;;;;;6.95;3.25;;;17.90;99.90;;;16.21;100.00;98753.75;5029610;28;20573;-72
2021/10/03 01:07:24;;;;;;;5.20;2.88;;;18.00;99.90;;;16.23;100.00;98761.72;5029926;28;20073;-72
2021/10/03 01:09:52;;;;;;;6.65;3.20;;;17.90;99.90;;;16.23;100.00;98764.47;5029396;28;20038;-72
2021/10/03 01:12:19;;;;;;;6.40;3.30;;;17.90;99.90;;;16.23;100.00;98757.06;5034251;28;20413;-72
2021/10/03 01:14:46;;;;;;;5.63;3.13;;;17.90;99.90;;;16.25;100.00;98759.53;5009707;28;20510;-72
2021/10/03 01:17:14;;;;;;;8.40;3.13;;;17.90;99.90;;;16.24;100.00;98763.41;5009903;28;20061;-72
2021/10/03 01:19:43;;;;;;;6.70;3.00;;;17.90;99.90;;;16.25;100.00;98761.47;5013489;28;20045;-72
2021/10/03 01:22:12;;;;;;;4.97;2.92;;;17.90;99.90;;;16.28;100.00;98758.16;5029329;28;20049;-73
2021/10/03 01:24:39;;;;;;;7.15;3.53;;;17.90;99.90;;;16.28;100.00;98753.53;5029275;28;20072;-72
2021/10/03 01:27:07;;;;;;;6.97;2.88;;;17.90;99.90;;;16.31;100.00;98771.38;5029473;28;20045;-72
2021/10/03 01:29:34;;;;;;;4.72;2.85;;;17.90;99.90;;;16.33;100.00;98756.28;5029219;28;20076;-72
2021/10/03 01:32:02;;;;;;;6.35;3.35;;;17.90;99.90;;;16.32;100.00;98760.13;5029384;28;20083;-72
2021/10/03 01:34:30;;;;;;;9.57;3.40;;;17.90;99.90;;;16.33;100.00;98778.25;5028889;28;20182;-72
2021/10/03 01:36:58;;;;;;;11.18;3.50;;;17.90;99.20;;;16.36;100.00;98766.75;5029089;28;20414;-72
2021/10/03 01:39:28;;;;;;;5.55;2.97;;;17.90;99.70;;;16.35;100.00;98754.09;5028834;28;20077;-72
2021/10/03 01:41:55;;;;;;;6.10;2.90;;;17.90;99.70;;;16.36;100.00;98755.75;5045084;22;20563;-71
2021/10/03 01:44:22;;;;;;;5.60;3.20;;;17.90;99.20;;;16.37;100.00;98749.19;5009919;28;20042;-71
2021/10/03 01:46:50;;;;;;;6.00;2.95;;;17.90;99.20;;;16.38;100.00;98755.50;5025166;28;20544;-71
2021/10/03 01:49:17;;;;;;;6.68;2.92;;;17.90;99.40;;;16.36;100.00;98758.50;5029478;28;20049;-71
2021/10/03 01:51:44;;;;;;;4.65;2.70;;;17.90;99.50;;;16.33;100.00;98756.28;5017744;28;20076;-71
2021/10/03 01:54:12;;;;;;;5.60;2.92;;;18.00;99.40;;;16.32;100.00;98765.63;5016272;28;20116;-71
2021/10/03 01:56:41;;;;;;;8.20;3.13;;;18.00;99.20;;;16.35;100.00;98753.28;5029577;28;20052;-71
2021/10/03 01:59:09;;;;;;;7.32;2.92;;;17.90;99.00;;;16.33;100.00;98752.72;5029197;28;20049;-71
2021/10/03 02:01:43;;;;;;;7.47;3.03;;;17.90;99.20;;;16.34;100.00;98751.66;5027731;28;20071;-71
2021/10/03 02:04:15;;;;;;;4.65;2.47;;;17.90;99.00;;;16.35;100.00;98758.78;5029834;28;20052;-71
2021/10/03 02:06:44;;;;;;;5.60;2.75;;;17.90;98.70;;;16.35;100.00;98737.63;5029568;28;20516;-71
2021/10/03 02:09:13;;;;;;;6.90;2.33;;;17.90;98.50;;;16.37;100.00;98735.47;5029531;28;20065;-71
2021/10/03 02:11:46;;;;;;;5.30;2.42;;;17.90;98.50;;;16.38;100.00;98734.34;5027759;28;20112;-71
2021/10/03 02:14:15;;;;;;;4.80;2.17;;;18.00;98.10;;;16.39;100.00;98738.78;5028275;28;20140;-71
2021/10/03 02:16:44;;;;;;;4.63;2.50;;;18.00;98.30;;;16.36;100.00;98728.31;5029562;28;20449;-72
2021/10/03 02:19:12;;;;;;;5.70;2.47;;;17.90;98.40;;;16.35;100.00;98720.34;5028985;28;20049;-71
2021/10/03 02:21:41;;;;;;;4.75;2.47;;;17.90;98.70;;;16.33;100.00;98728.84;5029334;28;20129;-71
2021/10/03 02:24:11;;;;;;;6.57;2.60;;;17.90;98.50;;;16.34;100.00;98730.50;5029307;28;20235;-71
2021/10/03 02:26:38;;;;;;;4.90;2.40;;;17.90;97.90;;;16.36;100.00;98717.34;5029187;28;20103;-71
2021/10/03 02:29:08;;;;;;;4.53;2.38;;;17.90;98.00;;;16.37;100.00;98720.91;5028858;28;20171;-71
2021/10/03 02:31:35;;;;;;;4.80;2.45;;;18.00;97.80;;;16.37;100.00;98718.16;5028247;28;20508;-72
2021/10/03 02:34:03;;;;;;;5.38;2.25;;;17.90;97.60;;;16.37;100.00;98701.69;5028915;28;20103;-71
2021/10/03 02:36:31;;;;;;;4.30;1.98;;;17.90;97.20;;;16.40;100.00;98712.13;5028696;28;20049;-71
2021/10/03 02:38:59;;;;;;;7.07;2.50;;;17.90;97.10;;;16.40;100.00;98710.22;5028521;28;20053;-71
2021/10/03 02:41:26;;;;;;;7.03;2.25;;;17.90;97.20;;;16.38;100.00;98704.16;5028950;28;20042;-71
2021/10/03 02:43:57;;;;;;;5.40;2.40;;;18.00;96.70;;;16.40;100.00;98704.72;5028509;28;20042;-71
2021/10/03 02:46:28;;;;;;;4.65;2.00;;;18.00;97.00;;;16.39;100.00;98692.09;5027978;28;20053;-71
2021/10/03 02:48:56;;;;;;;7.03;2.85;;;18.00;96.60;;;16.40;100.00;98696.47;5028587;28;20073;-72
2021/10/03 02:51:27;;;;;;;3.75;2.10;;;18.00;96.80;;;16.39;100.00;98700.34;5028741;28;20045;-72
2021/10/03 02:53:56;;;;;;;5.03;2.45;;;18.00;97.00;;;16.38;100.00;98706.09;5028766;28;20115;-71
2021/10/03 02:56:28;;;;;;;7.13;2.53;;;18.00;97.10;;;16.38;100.00;98693.19;5028610;28;20394;-72
2021/10/03 02:58:56;;;;;;;5.38;2.67;;;18.00;97.10;;;16.37;100.00;98694.28;5043200;28;20576;-72
2021/10/03 03:01:25;;;;;;;6.20;2.67;;;18.00;97.30;;;16.34;100.00;98714.03;5027794;28;20088;-72
2021/10/03 03:03:53;;;;;;;4.82;2.67;;;18.00;97.40;;;16.32;100.00;98699.75;5042555;28;20068;-72
2021/10/03 03:06:21;;;;;;;5.35;2.50;;;18.00;97.20;;;16.35;100.00;98703.88;5028201;28;20136;-71
2021/10/03 03:08:49;;;;;;;4.50;2.13;;;18.00;97.10;;;16.35;100.00;98704.69;5028289;28;20128;-71
2021/10/03 03:11:17;;;;;;;5.75;2.30;;;18.00;97.00;;;16.36;100.00;98698.13;5027995;28;20513;-71
2021/10/03 03:13:45;;;;;;;7.85;3.00;;;17.90;96.60;;;16.36;100.00;98695.38;5028270;28;20107;-71
2021/10/03 03:16:13;;;;;;;5.00;2.53;;;18.00;97.00;;;16.34;100.00;98697.56;5028173;28;20107;-71
2021/10/03 03:18:43;;;;;;;8.18;3.00;;;18.00;97.10;;;16.32;100.00;98694.25;5028055;28;20049;-71
2021/10/03 03:21:10;;;;;;;5.22;2.42;;;17.90;97.10;;;16.30;100.00;98696.44;5028171;28;20080;-71
2021/10/03 03:23:38;;;;;;;5.57;2.85;;;17.90;97.20;;;16.27;100.00;98696.97;5027665;28;20069;-71
2021/10/03 03:26:05;;;;;;;5.47;2.95;;;17.90;97.30;;;16.25;100.00;98692.84;5027867;28;20069;-71
2021/10/03 03:28:32;;;;;;;4.22;2.70;;;17.90;97.50;;;16.21;100.00;98695.28;5027658;28;20069;-71
2021/10/03 03:31:00;;;;;;;8.15;3.13;;;17.90;97.60;;;16.18;100.00;98698.56;5026518;28;20148;-71
2021/10/03 03:33:28;;;;;;;6.78;3.10;;;17.80;97.60;;;16.17;100.00;98688.69;5027125;28;20672;-72
2021/10/03 03:35:57;;;;;;;6.95;3.47;;;17.80;97.50;;;16.14;100.00;98694.69;5027803;28;20050;-71
2021/10/03 03:38:25;;;;;;;6.90;3.28;;;17.80;97.70;;;16.11;100.00;98692.50;5027484;28;20088;-71
2021/10/03 03:40:52;;;;;;;6.53;3.70;;;17.80;97.80;;;16.11;100.00;98687.00;5027841;28;20121;-71
2021/10/03 03:43:19;;;;;;;5.95;3.30;;;17.80;97.80;;;16.06;100.00;98686.97;5026306;28;20053;-71
2021/10/03 03:45:47;;;;;;;9.90;3.72;;;17.80;97.90;;;16.02;100.00;98684.75;5026252;28;20085;-71
2021/10/03 03:48:14;;;;;;;9.07;4.20;;;17.80;98.00;;;16.02;100.00;98684.75;5027374;28;20065;-72
2021/10/03 03:50:43;;;;;;;8.50;3.60;;;17.80;97.80;;;16.05;100.00;98688.06;5027576;28;20110;-71
2021/10/03 03:53:12;;;;;;;6.68;3.70;;;17.70;97.60;;;16.07;100.00;98685.88;5027534;28;20436;-71
2021/10/03 03:55:39;;;;;;;6.72;3.65;;;17.70;98.20;;;16.06;100.00;98682.31;5026620;28;20042;-71
2021/10/03 03:58:07;;;;;;;7.57;4.13;;;17.70;98.10;;;16.01;100.00;98680.38;5026865;28;20073;-71
2021/10/03 04:00:34;;;;;;;6.28;3.90;;;17.70;98.20;;;16.04;100.00;98668.03;5008150;28;20057;-72
2021/10/03 04:03:02;;;;;;;6.90;3.70;;;17.70;97.40;;;16.09;100.00;98672.69;5007625;28;20065;-71
2021/10/03 04:05:30;;;;;;;7.32;3.67;;;17.70;97.50;;;16.13;100.00;98671.09;5007725;28;20081;-72
2021/10/03 04:07:57;;;;;;;9.25;4.03;;;17.70;97.40;;;16.16;100.00;98673.31;5007767;28;20053;-71
2021/10/03 04:10:26;;;;;;;7.95;4.45;;;17.70;96.80;;;16.20;100.00;98679.91;5007606;28;20042;-71
2021/10/03 04:12:53;;;;;;;8.63;4.15;;;17.70;97.10;;;16.18;100.00;98666.47;5007560;28;20125;-71
2021/10/03 04:15:20;;;;;;;8.75;4.55;;;17.70;96.80;;;16.19;100.00;98668.09;5009957;28;20116;-71
2021/10/03 04:17:48;;;;;;;9.10;3.97;;;17.70;97.30;;;16.19;100.00;98675.53;5027220;28;20052;-71
2021/10/03 04:20:15;;;;;;;5.65;3.75;;;17.80;97.50;;;16.18;100.00;98671.13;5026977;28;20049;-71
2021/10/03 04:22:42;;;;;;;7.90;4.30;;;17.70;97.60;;;16.20;100.00;98679.91;5027473;28;20045;-71
2021/10/03 04:25:10;;;;;;;8.23;4.15;;;17.80;97.40;;;16.20;100.00;98674.41;5027126;28;20050;-71
2021/10/03 04:27:39;;;;;;;9.55;4.40;;;17.80;97.30;;;16.20;100.00;98671.66;5027332;28;20050;-71
2021/10/03 04:30:08;;;;;;;8.63;4.57;;;17.80;97.30;;;16.20;100.00;98679.91;5025456;28;20069;-72
2021/10/03 04:32:35;;;;;;;7.85;3.92;;;17.80;97.40;;;16.19;100.00;98672.78;5027151;28;20124;-71
2021/10/03 04:35:03;;;;;;;8.60;4.47;;;17.80;97.30;;;16.17;100.00;98670.28;5030583;28;20060;-71
2021/10/03 04:37:30;;;;;;;9.18;4.40;;;17.80;97.40;;;16.14;100.00;98664.50;5031358;28;20053;-71
2021/10/03 04:39:58;;;;;;;9.10;4.50;;;17.80;97.50;;;16.13;100.00;98680.16;5031137;28;20132;-71
2021/10/03 04:42:25;;;;;;;10.15;4.90;;;17.80;97.70;;;16.13;100.00;98660.13;5031307;28;20103;-71
2021/10/03 04:44:54;;;;;;;9.68;4.53;;;17.80;97.70;;;16.14;100.00;98667.25;5030045;28;20412;-72
2021/10/03 04:47:22;;;;;;;8.88;4.57;;;17.80;97.50;;;16.11;100.00;98668.63;5031218;28;20081;-71
2021/10/03 04:49:51;;;;;;;9.88;4.97;;;17.80;97.70;;;16.09;100.00;98665.31;5030968;28;20073;-73
2021/10/03 04:52:18;;;;;;;7.97;4.80;;;17.80;97.60;;;16.08;100.00;98665.59;5029744;28;20049;-73
2021/10/03 04:54:45;;;;;;;8.18;4.70;;;17.80;97.70;;;16.08;100.00;98660.09;5029557;28;20123;-74
2021/10/03 04:57:13;;;;;;;9.35;4.90;;;17.80;97.60;;;16.08;100.00;98666.41;5030906;28;20115;-74
2021/10/03 04:59:40;;;;;;;9.23;4.88;;;17.80;97.60;;;16.13;100.00;98649.97;5030952;28;20057;-74
2021/10/03 05:02:09;;;;;;;9.25;5.00;;;17.80;97.40;;;16.17;100.00;98644.78;5030876;28;20050;-74
2021/10/03 05:04:36;;;;;;;8.77;4.97;;;17.80;97.30;;;16.19;100.00;98650.81;5030623;28;20065;-73
2021/10/03 05:07:05;;;;;;;8.68;4.68;;;17.80;97.40;;;16.18;100.00;98657.38;5045836;28;20563;-74
2021/10/03 05:09:32;;;;;;;7.07;4.60;;;17.80;97.10;;;16.23;100.00;98651.94;5028907;28;20049;-73
2021/10/03 05:12:00;;;;;;;8.55;5.25;;;17.80;96.80;;;16.22;100.00;98655.75;5030571;28;20056;-74
2021/10/03 05:14:27;;;;;;;8.77;5.63;;;17.80;97.20;;;16.22;100.00;98650.25;5028997;28;20053;-74
2021/10/03 05:16:54;;;;;;;9.02;5.43;;;17.80;97.40;;;16.19;100.00;98654.38;5023773;28;20100;-74
2021/10/03 05:19:23;;;;;;;10.88;5.53;;;17.80;97.30;;;16.22;100.00;98661.25;5010499;28;20653;-74
2021/10/03 05:21:50;;;;;;;7.95;5.18;;;17.80;97.20;;;16.19;100.00;98651.63;5010775;28;20045;-72
2021/10/03 05:24:18;;;;;;;10.27;5.63;;;17.80;97.30;;;16.19;100.00;98656.31;5010683;28;20056;-71
2021/10/03 05:26:45;;;;;;;10.15;5.82;;;17.80;97.60;;;16.22;100.00;98653.00;5010626;28;20458;-73
2021/10/03 05:29:12;;;;;;;10.00;5.45;;;17.80;97.60;;;16.20;100.00;98658.78;5010300;28;20052;-71
2021/10/03 05:31:40;;;;;;;11.15;5.68;;;17.80;97.50;;;16.22;100.00;98644.78;5010493;28;20128;-72
2021/10/03 05:34:07;;;;;;;8.93;5.25;;;17.80;97.60;;;16.20;100.00;98644.22;5026237;28;20069;-72
2021/10/03 05:36:36;;;;;;;8.93;5.47;;;17.80;97.70;;;16.17;100.00;98653.00;5030045;28;20122;-73
2021/10/03 05:39:04;;;;;;;9.30;5.43;;;17.90;97.90;;;16.14;100.00;98654.34;5029864;28;20151;-73
2021/10/03 05:41:31;;;;;;;10.43;5.40;;;17.90;98.20;;;16.15;100.00;98646.97;5028643;28;20436;-72
2021/10/03 05:43:59;;;;;;;10.02;6.05;;;17.80;98.10;;;16.16;100.00;98652.19;5029975;28;20084;-74
2021/10/03 05:46:26;;;;;;;9.48;5.30;;;17.80;98.20;;;16.15;100.00;98656.00;5029451;28;20038;-73
2021/10/03 05:48:54;;;;;;;11.35;5.80;;;17.90;98.20;;;16.13;100.00;98649.16;5029158;28;20509;-74
2021/10/03 05:51:21;;;;;;;13.30;6.05;;;17.90;98.00;;;16.15;100.00;98652.44;5029712;28;20136;-74
2021/10/03 05:53:50;;;;;;;12.18;6.00;;;17.90;98.20;;;16.15;100.00;98649.72;5029839;28;20041;-74
2021/10/03 05:56:17;;;;;;;10.48;5.50;;;17.90;98.30;;;16.12;100.00;98650.22;5029834;28;20076;-74
2021/10/03 05:58:45;;;;;;;11.35;5.95;;;17.90;98.50;;;16.10;100.00;98647.75;5029602;28;20121;-74
2021/10/03 06:01:12;;;;;;;11.02;5.53;;;17.90;98.60;;;16.09;100.00;98650.75;5028775;28;20053;-73
2021/10/03 06:03:40;;;;;;;9.77;6.30;;;17.90;98.80;;;16.10;100.00;98655.97;5029781;28;20099;-73
2021/10/03 06:06:07;;;;;;;10.27;5.85;;;17.90;98.90;;;16.11;100.00;98657.66;5029699;28;20067;-74
2021/10/03 06:08:34;;;;;;;12.82;6.65;;;17.90;98.90;;;16.10;100.00;98653.22;5029433;28;20041;-74
2021/10/03 06:11:03;;;;;;;13.57;6.32;;;17.90;99.20;;;16.12;100.00;98661.22;5029522;28;20073;-74
2021/10/03 06:13:30;;;;;;;10.88;5.95;;;17.90;99.10;;;16.11;100.00;98660.38;5008277;28;20052;-75
2021/10/03 06:15:58;;;;;;;11.93;5.97;;;17.90;99.40;;;16.11;100.00;98656.81;5009972;28;20172;-74
2021/10/03 06:18:26;;;;;;;9.05;5.90;;;17.90;99.50;;;16.13;100.00;98654.66;5028928;28;20041;-74
2021/10/03 06:20:54;;;;;;;10.45;6.07;;;17.90;99.70;;;16.13;100.00;98660.13;5029019;28;20037;-77
2021/10/03 06:23:21;;;;;;;10.80;5.47;;;17.90;99.70;;;16.12;100.00;98663.94;5029447;28;20045;-76
2021/10/03 06:25:49;;;;;;;10.82;6.60;;;17.90;99.90;;;16.11;100.00;98654.09;5028930;28;20055;-74
2021/10/03 06:28:17;;;;;;;12.15;6.70;;;17.90;99.90;;;16.12;100.00;98656.53;5028633;28;20079;-75
2021/10/03 06:30:45;;;;;;;10.68;6.45;;;17.90;99.90;;;16.11;100.00;98663.13;5029125;28;20069;-75
2021/10/03 06:33:12;;;;;;;11.88;6.40;;;17.90;99.90;;;16.13;100.00;98658.19;5029122;28;20057;-74
2021/10/03 06:35:39;;;;;;;10.52;5.55;;;17.90;99.90;;;16.18;100.00;98660.13;5027844;28;20575;-76
2021/10/03 06:38:07;;;;;;;12.43;6.45;;;17.90;99.90;;;16.16;100.00;98651.34;5028939;28;20656;-75
2021/10/03 06:40:34;;;;;;;12.27;6.82;;;17.90;99.90;;;16.15;100.00;98652.44;5025201;28;20865;-75
2021/10/03 06:43:02;;;;;;;11.95;6.20;;;17.90;99.90;;;16.15;100.00;98661.50;5029111;28;20132;-76
2021/10/03 06:45:30;;;;;;;12.60;6.30;;;17.90;99.90;;;16.14;100.00;98670.00;5028839;28;20049;-75
2021/10/03 06:47:57;;;;;;;11.13;5.95;;;17.90;99.90;;;16.16;100.00;98659.56;5027989;28;20080;-74
2021/10/03 06:50:26;;;;;;;14.18;6.28;;;17.90;99.90;;;16.17;100.00;98664.00;5028137;28;20103;-74
2021/10/03 06:52:53;;;;;;;11.55;6.28;;;17.90;99.90;;;16.16;100.00;98668.66;5028432;28;20099;-73
2021/10/03 06:55:21;;;;;;;12.20;6.03;;;17.90;99.90;;;16.17;100.00;98667.53;5028431;28;20183;-73
2021/10/03 06:57:48;;;;;;;11.43;6.43;;;17.90;99.90;;;16.18;100.00;98668.38;5021059;28;20128;-74
2021/10/03 07:00:16;;;;;;;10.75;6.80;;;17.90;99.90;;;16.16;100.00;98676.03;5024009;28;20139;-73
2021/10/03 07:02:45;;;;;;;10.98;6.95;;;17.90;99.90;;;16.16;100.00;98678.78;5025665;28;20041;-74
2021/10/03 07:05:13;;;;;;;10.70;6.85;;;17.80;99.90;;;16.18;100.00;98676.59;5026471;28;20529;-74
2021/10/03 07:07:40;;;;;;;8.98;5.78;;;17.80;99.90;;;16.21;100.00;98681.56;5027824;28;20045;-73
2021/10/03 07:10:08;;;;;;;10.73;6.57;;;17.90;99.90;;;16.20;100.00;98678.00;5027293;28;20079;-72
2021/10/03 07:12:35;;;;;;;12.20;6.82;;;17.90;99.90;;;16.21;100.00;98670.59;5015700;28;20149;-70
2021/10/03 07:15:03;;;;;;;16.27;6.53;;;17.90;99.90;;;16.28;100.00;98668.44;5016994;28;20846;-71
2021/10/03 07:17:30;;;;;;;9.73;6.47;;;17.90;99.90;;;16.31;100.00;98680.78;5028332;28;20102;-71
2021/10/03 07:19:59;;;;;;;10.45;6.65;;;17.90;99.90;;;16.30;100.00;98687.38;5026919;28;20041;-71
2021/10/03 07:22:26;;;;;;;15.63;6.68;;;17.90;99.90;;;16.30;100.00;98692.88;5026879;28;20103;-72
2021/10/03 07:24:53;;;;;;;11.07;6.28;;;17.90;99.90;;;16.33;100.00;98700.56;5028416;28;20049;-70
2021/10/03 07:27:21;;;;;;;15.90;6.68;;;17.90;99.90;;;16.34;100.00;98699.47;5027145;28;20047;-73
2021/10/03 07:29:48;;;;;;;11.95;6.32;;;17.90;99.90;;;16.34;100.00;98692.06;5026826;28;20060;-71
2021/10/03 07:32:16;;;;;;;13.05;7.05;;;17.90;99.90;;;16.35;100.00;98690.13;5027696;28;20072;-71
2021/10/03 07:34:44;;;;;;;10.38;6.22;;;17.90;99.90;;;16.32;100.00;98688.75;5027688;28;20116;-71
2021/10/03 07:37:13;;;;;;;12.52;6.53;;;17.90;99.90;;;16.33;100.00;98690.41;5027805;28;20583;-71
2021/10/03 07:39:40;;;;;;;12.48;7.13;;;17.90;99.90;;;16.34;100.00;98702.22;5025874;28;20129;-71
2021/10/03 07:44:39;;;;;;;12.27;6.18;;;17.90;99.90;;;16.38;100.00;98708.84;5044712;28;20052;-75
2021/10/03 07:47:07;;;;;;;13.50;6.38;;;18.00;99.90;;;16.36;100.00;98706.34;5028275;28;20394;-76
2021/10/03 07:49:34;;;;;;;17.35;6.40;;;17.90;99.90;;;16.33;100.00;98709.63;5042938;28;20524;-75
2021/10/03 07:52:02;;;;;;;15.43;6.72;;;17.90;99.90;;;16.29;100.00;98716.75;5045086;28;20056;-73
2021/10/03 07:54:31;;;;;;;12.85;7.00;;;17.90;99.90;;;16.28;100.00;98706.88;5046589;28;20072;-74
2021/10/03 07:56:58;;;;;;;12.77;6.60;;;17.90;99.90;;;16.28;100.00;98709.59;5029144;28;20048;-73
2021/10/03 07:59:26;;;;;;;13.02;6.80;;;17.90;99.90;;;16.28;100.00;98709.59;5043470;28;20149;-73
2021/10/03 08:01:53;;;;;;;13.15;6.60;;;17.90;99.90;;;16.27;100.00;98707.94;5029130;28;20139;-73
2021/10/03 08:04:20;;;;;;;13.88;7.25;;;17.90;99.90;;;16.25;100.00;98707.38;5020757;28;20099;-73
2021/10/03 08:06:48;;;;;;;13.38;6.82;;;17.90;99.90;;;16.25;100.00;98712.06;5045512;28;20052;-72
2021/10/03 08:09:15;;;;;;;11.20;6.78;;;17.90;99.90;;;16.27;100.00;98718.09;5038885;28;20049;-73
2021/10/03 08:11:44;;;;;;;12.02;6.53;;;17.90;99.90;;;16.27;100.00;98705.19;5024280;28;20041;-73
2021/10/03 08:14:11;;;;;;;8.48;5.88;;;17.90;99.90;;;16.26;100.00;98717.28;5042650;28;20064;-73
2021/10/03 08:16:41;;;;;;;10.48;6.57;;;17.90;99.90;;;16.25;100.00;98710.13;5037904;28;20649;-73
2021/10/03 08:19:09;;;;;;;10.27;6.25;;;17.90;99.90;;;16.25;100.00;98721.13;5036119;28;20138;-73
2021/10/03 08:21:36;;;;;;;13.15;6.65;;;17.90;99.90;;;16.24;100.00;98727.72;5046050;28;20461;-73
2021/10/03 08:24:04;;;;;;;10.63;6.50;;;17.90;99.90;;;16.24;100.00;98716.72;5040065;28;20041;-73
2021/10/03 08:26:32;;;;;;;10.52;6.32;;;17.90;99.90;;;16.21;100.00;98720.81;5037804;28;20144;-73
2021/10/03 08:29:02;;;;;;;12.70;7.20;;;17.90;99.90;;;16.21;100.00;98722.75;5036230;28;20042;-73
2021/10/03 08:31:29;;;;;;;10.50;5.93;;;17.90;99.90;;;16.23;100.00;98726.03;5032251;28;20121;-73
2021/10/03 08:33:57;;;;;;;11.50;6.18;;;17.90;99.90;;;16.26;100.00;98725.53;5023397;28;20141;-73
2021/10/03 08:36:24;;;;;;;11.13;6.80;;;17.90;99.90;;;16.29;100.00;98726.91;5044632;28;20098;-73
2021/10/03 08:38:53;;;;;;;9.90;5.93;;;17.90;99.90;;;16.29;100.00;98721.41;5042731;28;20045;-73
2021/10/03 08:41:21;;;;;;;11.18;6.13;;;17.90;99.90;;;16.29;100.00;98724.16;5023170;28;20103;-73
2021/10/03 08:43:52;;;;;;;10.63;6.30;;;17.90;99.90;;;16.30;100.00;98707.41;5012344;28;20056;-73
2021/10/03 08:46:25;;;;;;;10.70;5.80;;;17.90;99.90;;;16.32;100.00;98716.22;5026216;28;20128;-73
2021/10/03 08:48:53;;;;;;;13.98;6.47;;;17.90;99.90;;;16.33;100.00;98726.09;5038134;28;20041;-73
2021/10/03 08:51:21;;;;;;;11.57;6.55;;;17.90;99.90;;;16.33;100.00;98712.34;5046010;28;20513;-73
2021/10/03 08:53:49;;;;;;;11.40;6.63;;;17.90;99.90;;;16.34;100.00;98721.44;5008388;28;20057;-73
2021/10/03 08:56:17;;;;;;;20.80;6.80;;;17.90;99.90;;;16.37;100.00;98713.50;5026877;28;20036;-73
2021/10/03 08:58:45;;;;;;;10.55;6.47;;;17.90;99.90;;;16.39;100.00;98711.31;5018897;28;20071;-73
2021/10/03 09:01:13;;;;;;;11.18;6.47;;;18.00;99.90;;;16.40;100.00;98726.69;5026181;28;20091;-73
2021/10/03 09:03:42;;;;;;;11.18;5.95;;;17.90;99.90;;;16.41;100.00;98717.38;5026565;28;20122;-73
2021/10/03 09:06:09;;;;;;;13.88;6.28;;;18.00;99.90;;;16.44;100.00;98721.47;5045421;28;20052;-73
2021/10/03 09:08:40;;;;;;;9.40;6.22;;;18.00;99.90;;;16.44;100.00;98717.91;5042288;28;20424;-73
2021/10/03 09:11:09;;;;;;;10.02;6.05;;;18.00;99.90;;;16.44;100.00;98723.41;5045156;28;20052;-73
2021/10/03 09:13:50;;;;;;;10.40;6.88;;;18.00;99.90;;;16.46;100.00;98718.47;5008217;28;20049;-72
2021/10/03 09:16:23;;;;;;;12.68;6.72;;;18.00;99.90;;;16.46;100.00;98715.72;5008106;28;20468;-72
2021/10/03 09:18:56;;;;;;;13.20;5.97;;;18.00;99.90;;;16.43;100.00;98728.09;5027668;28;20037;-75
2021/10/03 09:21:40;;;;;;;10.63;6.18;;;18.00;99.90;;;16.44;100.00;98726.16;5022639;28;20052;-75
2021/10/03 09:24:10;;;;;;;11.77;6.70;;;18.00;99.90;;;16.44;100.00;98734.41;5020861;28;20110;-75
2021/10/03 09:26:56;;;;;;;16.98;6.70;;;18.00;99.90;;;16.48;100.00;98732.75;5022415;28;20048;-75
2021/10/03 09:29:27;;;;;;;12.40;6.25;;;18.00;99.90;;;16.48;100.00;98730.84;5034641;28;20529;-75
2021/10/03 09:32:13;;;;;;;10.60;6.43;;;18.10;99.90;;;16.53;100.00;98733.63;5035809;28;20098;-74
2021/10/03 09:34:46;;;;;;;8.90;5.88;;;18.00;99.90;;;16.52;100.00;98731.13;5035944;28;20037;-75
2021/10/03 09:37:24;;;;;;;10.55;6.03;;;18.00;99.90;;;16.52;100.00;98731.94;5046222;28;20037;-75
2021/10/03 09:40:00;;;;;;;12.18;6.97;;;18.00;99.90;;;16.57;100.00;98728.41;5037641;28;20136;-75
2021/10/03 09:42:29;;;;;;;10.45;5.53;;;18.00;99.90;;;16.57;100.00;98728.41;5042773;28;20037;-75
2021/10/03 09:45:09;;;;;;;13.27;6.35;;;18.10;99.90;;;16.59;100.00;98721.53;5035212;28;20045;-74
2021/10/03 09:47:38;;;;;;;12.20;6.25;;;18.10;99.90;;;16.60;100.00;98731.47;5029033;28;20050;-74
2021/10/03 09:50:11;;;;;;;10.90;5.75;;;18.10;99.90;;;16.58;100.00;98722.66;5039778;28;20136;-75
2021/10/03 09:52:40;;;;;;;10.52;5.75;;;18.10;99.90;;;16.60;100.00;98723.22;5044528;28;20037;-74
2021/10/03 09:55:13;;;;;;;9.75;6.70;;;18.10;99.90;;;16.60;100.00;98727.84;5048341;28;20714;-74
2021/10/03 09:57:41;;;;;;;11.27;6.13;;;18.10;99.90;;;16.64;100.00;98736.38;5029923;28;20083;-74
2021/10/03 10:00:11;;;;;;;20.00;7.07;;;18.20;99.90;;;16.68;100.00;98730.09;5045629;28;20197;-74
2021/10/03 10:02:40;;;;;;;14.20;6.18;;;18.10;99.90;;;16.69;100.00;98725.44;5048384;28;20041;-74
2021/10/03 10:05:09;;;;;;;9.40;5.95;;;18.20;99.90;;;16.73;100.00;98723.78;5047985;28;20516;-75
2021/10/03 10:07:37;;;;;;;9.25;5.55;;;18.20;99.90;;;16.75;100.00;98722.44;5028266;28;20162;-74
2021/10/03 10:10:06;;;;;;;9.15;5.57;;;18.20;99.90;;;16.79;100.00;98726.31;5022691;28;20132;-74
2021/10/03 10:12:42;;;;;;;9.80;5.75;;;18.30;99.90;;;16.84;100.00;98727.44;5038509;28;20045;-74
2021/10/03 10:15:12;;;;;;;9.25;5.80;;;18.20;99.90;;;16.89;100.00;98724.72;5033601;28;20044;-75
2021/10/03 10:17:42;;;;;;;13.05;6.13;;;18.30;99.90;;;16.92;100.00;98718.66;5043124;28;20564;-74